createdAt,value
2022-08-04T00:00:13.868Z,95065.72
2022-08-04T00:03:18.105Z,95066.06
2022-08-04T00:06:14.537Z,95065.06
2022-08-04T00:08:57.437Z,95068.25
2022-08-04T00:11:30.087Z,95057.59
2022-08-04T00:13:59.685Z,95065.75
2022-08-04T00:16:38.049Z,95073.09
2022-08-04T00:19:21.100Z,95069.13
2022-08-04T00:21:58.187Z,95069.59
2022-08-04T00:24:30.457Z,95060.41
2022-08-04T00:26:58.164Z,95069.22
2022-08-04T00:29:25.854Z,95066.66
2022-08-04T00:31:57.454Z,95056.94
2022-08-04T00:34:27.509Z,95063.16
2022-08-04T00:36:56.097Z,95057.06
2022-08-04T00:39:23.670Z,95058.41
2022-08-04T00:42:02.446Z,95064.09
2022-08-04T00:44:53.839Z,95067.09
2022-08-04T00:47:45.154Z,95070.16
2022-08-04T00:50:30.268Z,95071.25
2022-08-04T00:53:08.834Z,95072.84
2022-08-04T00:55:53.956Z,95076.38
2022-08-04T00:58:37.498Z,95070.47
2022-08-04T01:01:08.755Z,95077.00
2022-08-04T01:03:57.178Z,95080.97
2022-08-04T01:06:42.240Z,95083.38
2022-08-04T01:09:27.037Z,95085.00
2022-08-04T01:11:56.904Z,95090.09
2022-08-04T01:14:42.876Z,95094.84
2022-08-04T01:17:36.082Z,95087.38
2022-08-04T01:20:10.949Z,95090.84
2022-08-04T01:22:46.498Z,95083.22
2022-08-04T01:25:40.410Z,95083.72
2022-08-04T01:28:11.505Z,95082.41
2022-08-04T01:30:45.320Z,95083.66
2022-08-04T01:33:18.184Z,95081.94
2022-08-04T01:35:54.485Z,95082.13
2022-08-04T01:38:36.119Z,95075.88
2022-08-04T01:41:06.611Z,95079.72
2022-08-04T01:43:39.717Z,95076.81
2022-08-04T01:46:06.958Z,95070.81
2022-08-04T01:48:38.363Z,95077.50
2022-08-04T01:51:07.722Z,95075.53
2022-08-04T01:53:40.966Z,95074.00
2022-08-04T01:56:10.951Z,95082.25
2022-08-04T01:58:40.414Z,95081.75
2022-08-04T02:01:13.226Z,95076.31
2022-08-04T02:04:18.104Z,95080.59
2022-08-04T02:06:36.376Z,95073.28
2022-08-04T02:09:21.662Z,95062.47
2022-08-04T02:12:03.179Z,95080.44
2022-08-04T02:14:36.904Z,95076.94
2022-08-04T02:17:14.967Z,95080.34
2022-08-04T02:20:03.958Z,95084.19
2022-08-04T02:22:34.379Z,95086.09
2022-08-04T02:25:09.540Z,95084.91
2022-08-04T02:28:14.732Z,95076.06
2022-08-04T02:30:51.865Z,95075.69
2022-08-04T02:33:29.102Z,95076.53
2022-08-04T02:36:03.203Z,95072.84
2022-08-04T02:38:55.530Z,95080.03
2022-08-04T02:41:25.372Z,95072.31
2022-08-04T02:43:57.243Z,95076.31
2022-08-04T02:46:25.120Z,95064.41
2022-08-04T02:48:54.307Z,95077.50
2022-08-04T02:51:33.292Z,95066.94
2022-08-04T02:54:02.445Z,95070.41
2022-08-04T02:56:32.826Z,95068.38
2022-08-04T02:59:03.676Z,95075.41
2022-08-04T03:01:31.227Z,95074.69
2022-08-04T03:04:12.862Z,95078.53
2022-08-04T03:07:01.670Z,95071.03
2022-08-04T03:10:00.135Z,95074.50
2022-08-04T03:12:45.262Z,95066.88
2022-08-04T03:15:11.847Z,95076.59
2022-08-04T03:18:14.780Z,95079.50
2022-08-04T03:20:56.292Z,95069.94
2022-08-04T03:23:28.792Z,95068.41
2022-08-04T03:26:04.536Z,95073.06
2022-08-04T03:28:36.930Z,95071.00
2022-08-04T03:31:31.533Z,95071.88
2022-08-04T03:34:34.683Z,95069.88
2022-08-04T03:37:52.142Z,95073.69
2022-08-04T03:40:30.947Z,95076.06
2022-08-04T03:43:59.321Z,95074.56
2022-08-04T03:46:23.709Z,95080.31
2022-08-04T03:49:20.943Z,95081.31
2022-08-04T03:52:09.870Z,95082.38
2022-08-04T03:55:16.234Z,95080.47
2022-08-04T03:57:54.870Z,95078.69
2022-08-04T04:00:30.942Z,95080.13
2022-08-04T04:03:10.169Z,95077.94
2022-08-04T04:06:06.479Z,95074.66
2022-08-04T04:08:52.600Z,95078.66
2022-08-04T04:12:00.487Z,95079.19
2022-08-04T04:15:05.527Z,95076.16
2022-08-04T04:18:04.317Z,95074.75
2022-08-04T04:20:52.356Z,95078.78
2022-08-04T04:23:21.802Z,95077.56
2022-08-04T04:26:45.284Z,95084.44
2022-08-04T04:29:34.260Z,95085.38
2022-08-04T04:32:18.792Z,95085.03
2022-08-04T04:35:14.411Z,95081.81
2022-08-04T04:37:59.633Z,95088.06
2022-08-04T04:40:54.306Z,95092.53
2022-08-04T04:43:51.026Z,95090.94
2022-08-04T04:46:39.971Z,95094.38
2022-08-04T04:49:12.590Z,95094.91
2022-08-04T04:52:15.680Z,95096.75
2022-08-04T04:55:23.338Z,95101.50
2022-08-04T04:57:53.952Z,95097.31
2022-08-04T05:00:33.217Z,95102.38
2022-08-04T05:03:09.126Z,95103.41
2022-08-04T05:06:07.490Z,95107.63
2022-08-04T05:09:01.405Z,95102.09
2022-08-04T05:11:55.007Z,95109.38
2022-08-04T05:14:41.496Z,95113.97
2022-08-04T05:17:25.869Z,95108.44
2022-08-04T05:20:16.277Z,95102.88
2022-08-04T05:23:00.892Z,95107.88
2022-08-04T05:25:37.303Z,95099.50
2022-08-04T05:28:13.242Z,95103.31
2022-08-04T05:30:43.731Z,95101.47
2022-08-04T05:33:15.427Z,95103.09
2022-08-04T05:36:18.552Z,95112.34
2022-08-04T05:38:40.946Z,95114.38
2022-08-04T05:41:09.379Z,95117.09
2022-08-04T05:43:41.494Z,95115.34
2022-08-04T05:46:10.918Z,95109.97
2022-08-04T05:48:39.670Z,95117.78
2022-08-04T05:51:10.122Z,95116.81
2022-08-04T05:53:39.130Z,95120.81
2022-08-04T05:56:07.513Z,95129.16
2022-08-04T05:58:36.498Z,95120.75
2022-08-04T06:01:08.437Z,95120.47
2022-08-04T06:03:38.587Z,95120.31
2022-08-04T06:06:07.914Z,95125.41
2022-08-04T06:08:34.850Z,95130.00
2022-08-04T06:11:07.588Z,95125.72
2022-08-04T06:13:50.306Z,95121.41
2022-08-04T06:16:30.339Z,95112.78
2022-08-04T06:20:01.315Z,95119.06
2022-08-04T06:22:00.213Z,95127.09
2022-08-04T06:24:30.517Z,95121.91
2022-08-04T06:26:58.398Z,95127.34
2022-08-04T06:29:28.236Z,95109.59
2022-08-04T06:32:30.200Z,95117.19
2022-08-04T06:34:45.485Z,95120.66
2022-08-04T06:37:12.877Z,95115.84
2022-08-04T06:40:02.827Z,95111.91
2022-08-04T06:42:51.198Z,95113.06
2022-08-04T06:45:20.143Z,95110.47
2022-08-04T06:47:48.930Z,95107.84
2022-08-04T06:51:26.830Z,95110.50
2022-08-04T06:53:04.108Z,95111.50
2022-08-04T06:55:33.352Z,95113.09
2022-08-04T06:58:03.542Z,95110.38
2022-08-04T07:00:33.874Z,95113.88
2022-08-04T07:03:03.149Z,95107.91
2022-08-04T07:05:31.264Z,95114.81
2022-08-04T07:07:59.271Z,95118.84
2022-08-04T07:10:28.661Z,95114.06
2022-08-04T07:12:58.122Z,95112.81
2022-08-04T07:15:25.896Z,95125.22
2022-08-04T07:17:54.238Z,95127.81
2022-08-04T07:20:30.481Z,95120.75
2022-08-04T07:23:05.426Z,95124.38
2022-08-04T07:26:00.166Z,95127.06
2022-08-04T07:28:23.110Z,95133.00
2022-08-04T07:30:50.448Z,95129.03
2022-08-04T07:33:18.666Z,95123.63
2022-08-04T07:36:09.460Z,95135.06
2022-08-04T07:38:48.729Z,95134.41
2022-08-04T07:41:39.674Z,95131.50
2022-08-04T07:44:07.751Z,95125.31
2022-08-04T07:46:35.220Z,95119.25
2022-08-04T07:49:02.408Z,95122.59
2022-08-04T07:51:30.292Z,95130.41
2022-08-04T07:53:57.747Z,95133.91
2022-08-04T07:56:27.823Z,95127.34
2022-08-04T07:58:55.337Z,95128.19
2022-08-04T08:01:23.981Z,95123.38
2022-08-04T08:03:54.162Z,95126.13
2022-08-04T08:06:32.069Z,95126.56
2022-08-04T08:09:14.345Z,95124.22
2022-08-04T08:12:35.502Z,95131.78
2022-08-04T08:14:37.933Z,95130.91
2022-08-04T08:17:08.424Z,95131.16
2022-08-04T08:19:35.686Z,95135.03
2022-08-04T08:22:03.764Z,95124.19
2022-08-04T08:24:36.128Z,95124.31
2022-08-04T08:27:04.445Z,95124.16
2022-08-04T08:29:34.637Z,95125.94
2022-08-04T08:32:07.800Z,95124.63
2022-08-04T08:34:35.739Z,95135.03
2022-08-04T08:37:13.800Z,95127.00
2022-08-04T08:39:56.577Z,95127.50
2022-08-04T08:42:26.168Z,95125.97
2022-08-04T08:45:11.782Z,95118.97
2022-08-04T08:48:06.080Z,95123.50
2022-08-04T08:51:13.139Z,95125.03
2022-08-04T08:54:11.038Z,95118.19
2022-08-04T08:56:49.724Z,95119.13
2022-08-04T08:59:34.968Z,95122.88
2022-08-04T09:02:45.099Z,95122.72
2022-08-04T09:05:39.319Z,95122.72
2022-08-04T09:08:39.488Z,95117.19
2022-08-04T09:11:21.320Z,95113.16
2022-08-04T09:13:54.001Z,95126.31
2022-08-04T09:16:42.393Z,95120.50
2022-08-04T09:19:38.142Z,95122.44
2022-08-04T09:22:20.882Z,95120.91
2022-08-04T09:25:06.046Z,95113.66
2022-08-04T09:27:55.416Z,95110.06
2022-08-04T09:30:31.925Z,95117.97
2022-08-04T09:33:22.850Z,95118.28
2022-08-04T09:36:27.906Z,95112.50
2022-08-04T09:39:13.627Z,95120.94
2022-08-04T09:42:18.641Z,95114.66
2022-08-04T09:45:43.228Z,95115.09
2022-08-04T09:48:41.667Z,95107.59
2022-08-04T09:51:21.118Z,95108.19
2022-08-04T09:54:02.264Z,95109.31
2022-08-04T09:56:45.078Z,95104.91
2022-08-04T09:59:27.709Z,95098.59
2022-08-04T10:02:03.387Z,95099.97
2022-08-04T10:04:35.094Z,95099.81
2022-08-04T10:07:13.731Z,95090.75
2022-08-04T10:10:15.249Z,95092.53
2022-08-04T10:13:04.641Z,95094.44
2022-08-04T10:16:15.184Z,95097.72
2022-08-04T10:19:18.968Z,95084.25
2022-08-04T10:22:28.664Z,95080.84
2022-08-04T10:26:03.033Z,95086.69
2022-08-04T10:28:22.099Z,95077.41
2022-08-04T10:31:01.179Z,95075.94
2022-08-04T10:33:54.046Z,95070.53
2022-08-04T10:36:30.224Z,95072.16
2022-08-04T10:39:05.907Z,95070.59
2022-08-04T10:42:01.344Z,95067.59
2022-08-04T10:44:49.234Z,95061.97
2022-08-04T10:47:24.758Z,95060.44
2022-08-04T10:49:59.127Z,95068.47
2022-08-04T10:52:38.192Z,95062.44
2022-08-04T10:56:06.375Z,95070.03
2022-08-04T10:58:25.560Z,95065.72
2022-08-04T11:02:01.740Z,95060.16
2022-08-04T11:04:26.916Z,95052.16
2022-08-04T11:06:56.427Z,95050.88
2022-08-04T11:09:24.091Z,95056.72
2022-08-04T11:12:02.313Z,95046.25
2022-08-04T11:14:39.881Z,95048.38
2022-08-04T11:17:38.053Z,95054.09
2022-08-04T11:23:16.851Z,95046.34
2022-08-04T11:26:11.093Z,95042.44
2022-08-04T11:29:03.203Z,95045.16
2022-08-04T11:31:39.379Z,95039.06
2022-08-04T11:34:26.208Z,95040.56
2022-08-04T11:37:23.717Z,95045.50
2022-08-04T11:40:04.278Z,95049.47
2022-08-04T11:42:38.425Z,95043.22
2022-08-04T11:45:17.981Z,95042.31
2022-08-04T11:47:48.464Z,95041.13
2022-08-04T11:50:33.121Z,95038.59
2022-08-04T11:53:02.680Z,95024.75
2022-08-04T11:56:08.322Z,95029.84
2022-08-04T11:58:24.681Z,95029.47
2022-08-04T12:01:08.881Z,95027.50
2022-08-04T12:04:04.258Z,95027.09
2022-08-04T12:06:57.100Z,95021.31
2022-08-04T12:10:05.832Z,95021.31
2022-08-04T12:13:03.632Z,95013.13
2022-08-04T12:15:40.640Z,95014.88
2022-08-04T12:18:20.916Z,95018.78
2022-08-04T12:20:55.189Z,95013.00
2022-08-04T12:23:36.440Z,95004.34
2022-08-04T12:26:07.399Z,95007.91
2022-08-04T12:31:55.328Z,94995.75
2022-08-04T12:34:48.237Z,94995.72
2022-08-04T12:37:58.024Z,94991.34
2022-08-04T12:40:31.611Z,94984.84
2022-08-04T12:43:06.942Z,94993.97
2022-08-04T12:45:34.842Z,94990.66
2022-08-04T12:48:06.257Z,94987.09
2022-08-04T12:50:34.358Z,94993.34
2022-08-04T12:53:02.585Z,94987.44
2022-08-04T12:55:35.160Z,94982.19
2022-08-04T12:58:11.334Z,94985.75
2022-08-04T13:00:41.599Z,94984.91
2022-08-04T13:03:14.267Z,94980.53
2022-08-04T13:05:43.578Z,94983.28
2022-08-04T13:08:15.706Z,94975.44
2022-08-04T13:10:47.978Z,94977.84
2022-08-04T13:13:25.572Z,94972.63
2022-08-04T13:16:05.152Z,94970.56
2022-08-04T13:18:38.486Z,94972.97
2022-08-04T13:21:19.920Z,94963.22
2022-08-04T13:24:10.937Z,94962.78
2022-08-04T13:26:56.321Z,94955.91
2022-08-04T13:29:58.746Z,94948.34
2022-08-04T13:32:21.563Z,94946.09
2022-08-04T13:34:53.002Z,94946.91
2022-08-04T13:37:25.914Z,94948.94
2022-08-04T13:39:56.450Z,94939.25
2022-08-04T13:42:26.256Z,94943.09
2022-08-04T13:44:57.305Z,94934.66
2022-08-04T13:47:39.051Z,94935.72
2022-08-04T13:50:11.042Z,94933.59
2022-08-04T13:52:40.453Z,94935.13
2022-08-04T13:55:08.275Z,94924.91
2022-08-04T13:57:45.048Z,94930.81
2022-08-04T14:00:12.821Z,94928.00
2022-08-04T14:02:52.403Z,94921.47
2022-08-04T14:05:28.551Z,94915.53
2022-08-04T14:08:11.809Z,94921.13
2022-08-04T14:10:39.792Z,94920.69
2022-08-04T14:13:07.315Z,94921.00
2022-08-04T14:16:02.124Z,94918.28
2022-08-04T14:18:30.200Z,94918.63
2022-08-04T14:21:01.749Z,94918.38
2022-08-04T14:23:46.978Z,94912.00
2022-08-04T14:26:16.197Z,94915.63
2022-08-04T14:29:25.204Z,94907.00
2022-08-04T14:31:31.143Z,94901.81
2022-08-04T14:34:04.668Z,94907.06
2022-08-04T14:37:13.292Z,94898.81
2022-08-04T14:40:17.590Z,94895.69
2022-08-04T14:42:54.824Z,94897.47
2022-08-04T14:45:36.316Z,94895.31
2022-08-04T14:48:08.454Z,94897.69
2022-08-04T14:50:45.131Z,94894.53
2022-08-04T14:53:20.907Z,94893.38
2022-08-04T14:55:51.289Z,94890.56
2022-08-04T14:58:35.055Z,94885.00
2022-08-04T15:01:10.591Z,94883.94
2022-08-04T15:03:48.337Z,94883.53
2022-08-04T15:06:28.488Z,94877.25
2022-08-04T15:08:58.251Z,94882.94
2022-08-04T15:11:26.034Z,94881.91
2022-08-04T15:13:54.596Z,94877.50
2022-08-04T15:16:22.925Z,94885.81
2022-08-04T15:18:50.732Z,94883.09
2022-08-04T15:21:18.540Z,94880.34
2022-08-04T15:23:45.257Z,94883.47
2022-08-04T15:26:19.171Z,94880.38
2022-08-04T15:28:51.744Z,94873.69
2022-08-04T15:32:07.813Z,94874.84
2022-08-04T15:34:09.892Z,94872.84
2022-08-04T15:36:56.999Z,94866.19
2022-08-04T15:39:51.537Z,94866.13
2022-08-04T15:42:38.859Z,94872.91
2022-08-04T15:45:21.482Z,94863.00
2022-08-04T15:48:03.101Z,94859.56
2022-08-04T15:50:30.737Z,94868.97
2022-08-04T15:53:12.477Z,94856.78
2022-08-04T15:55:43.838Z,94862.75
2022-08-04T15:58:13.537Z,94857.63
2022-08-04T16:00:49.332Z,94852.16
2022-08-04T16:03:53.174Z,94850.53
2022-08-04T16:06:22.799Z,94845.44
2022-08-04T16:08:51.976Z,94843.47
2022-08-04T16:11:31.086Z,94847.75
2022-08-04T16:13:58.608Z,94842.31
2022-08-04T16:16:48.634Z,94850.13
2022-08-04T16:19:34.999Z,94840.31
2022-08-04T16:22:04.033Z,94842.63
2022-08-04T16:24:41.717Z,94834.78
2022-08-04T16:27:11.049Z,94840.28
2022-08-04T16:29:46.965Z,94841.56
2022-08-04T16:32:23.194Z,94843.88
2022-08-04T16:35:01.027Z,94831.31
2022-08-04T16:37:32.445Z,94839.94
2022-08-04T16:40:36.993Z,94838.72
2022-08-04T16:43:10.765Z,94837.19
2022-08-04T16:45:46.965Z,94832.47
2022-08-04T16:48:28.443Z,94836.72
2022-08-04T16:51:05.959Z,94836.72
2022-08-04T16:54:03.080Z,94847.22
2022-08-04T16:56:32.984Z,94849.84
2022-08-04T16:59:09.605Z,94846.34
2022-08-04T17:01:38.612Z,94844.66
2022-08-04T17:04:06.462Z,94849.69
2022-08-04T17:06:39.952Z,94846.94
2022-08-04T17:09:18.074Z,94843.63
2022-08-04T17:11:47.240Z,94844.34
2022-08-04T17:14:20.983Z,94844.56
2022-08-04T17:16:47.847Z,94846.31
2022-08-04T17:19:24.438Z,94848.75
2022-08-04T17:22:06.324Z,94841.09
2022-08-04T17:24:37.495Z,94840.16
2022-08-04T17:29:52.528Z,94838.03
2022-08-04T17:32:21.513Z,94834.72
2022-08-04T17:34:51.014Z,94831.31
2022-08-04T17:37:39.249Z,94828.72
2022-08-04T17:44:03.622Z,94832.41
2022-08-04T17:46:29.014Z,94826.53
2022-08-04T17:49:13.107Z,94832.53
2022-08-04T17:52:04.739Z,94835.38
2022-08-04T17:54:39.966Z,94827.50
2022-08-04T17:57:21.906Z,94830.28
2022-08-04T17:59:59.199Z,94839.22
2022-08-04T18:02:34.391Z,94833.97
2022-08-04T18:05:06.247Z,94832.50
2022-08-04T18:08:39.050Z,94840.59
2022-08-04T18:10:55.811Z,94837.75
2022-08-04T18:13:26.045Z,94841.97
2022-08-04T18:16:06.247Z,94849.72
2022-08-04T18:18:41.662Z,94839.97
2022-08-04T18:21:15.790Z,94847.75
2022-08-04T18:23:50.874Z,94839.91
2022-08-04T18:26:18.208Z,94847.94
2022-08-04T18:28:50.789Z,94858.41
2022-08-04T18:31:17.458Z,94848.00
2022-08-04T18:33:56.942Z,94848.38
2022-08-04T18:39:12.443Z,94855.88
2022-08-04T18:42:02.408Z,94856.72
2022-08-04T18:44:31.807Z,94861.16
2022-08-04T18:47:19.259Z,94857.34
2022-08-04T18:51:00.984Z,94849.69
2022-08-04T18:52:33.939Z,94854.44
2022-08-04T18:55:02.107Z,94856.53
2022-08-04T18:57:58.902Z,94851.41
2022-08-04T19:03:04.644Z,94861.22
2022-08-04T19:05:38.010Z,94870.75
2022-08-04T19:08:11.543Z,94871.19
2022-08-04T19:10:59.977Z,94879.22
2022-08-04T19:13:27.948Z,94888.91
2022-08-04T19:15:54.684Z,94888.03
2022-08-04T19:18:26.172Z,94903.38
2022-08-04T19:20:55.369Z,94903.78
2022-08-04T19:24:10.788Z,94912.13
2022-08-04T19:26:23.775Z,94916.44
2022-08-04T19:28:57.615Z,94921.88
2022-08-04T19:31:34.117Z,94928.03
2022-08-04T19:34:07.261Z,94932.97
2022-08-04T19:36:34.447Z,94936.81
2022-08-04T19:39:11.191Z,94937.88
2022-08-04T19:44:25.619Z,94951.25
2022-08-04T19:47:00.815Z,94957.50
2022-08-04T19:50:03.728Z,94956.16
2022-08-04T19:52:33.298Z,94965.56
2022-08-04T19:55:09.848Z,94972.53
2022-08-04T19:57:39.207Z,94968.06
2022-08-04T20:00:08.895Z,94977.00
2022-08-04T20:02:36.817Z,94983.94
2022-08-04T20:05:08.847Z,94993.13
2022-08-04T20:07:35.685Z,95006.13
2022-08-04T20:10:05.011Z,95005.63
2022-08-04T20:12:32.392Z,95005.19
2022-08-04T20:14:59.602Z,94999.53
2022-08-04T20:20:14.949Z,95015.56
2022-08-04T20:22:51.710Z,95017.66
2022-08-04T20:25:36.827Z,95034.53
2022-08-04T20:28:05.053Z,95051.06
2022-08-04T20:30:32.094Z,95053.16
2022-08-04T20:32:58.769Z,95056.81
2022-08-04T20:35:27.168Z,95059.19
2022-08-04T20:37:54.974Z,95049.28
2022-08-04T20:40:29.200Z,95044.44
2022-08-04T20:42:58.118Z,95035.59
2022-08-04T20:45:55.580Z,95042.09
2022-08-04T20:48:13.320Z,95048.81
2022-08-04T20:50:39.998Z,95041.84
2022-08-04T20:53:16.345Z,95040.03
2022-08-04T20:55:55.480Z,95041.06
2022-08-04T20:58:27.143Z,95032.63
2022-08-04T21:00:55.559Z,95038.09
2022-08-04T21:03:49.272Z,95037.06
2022-08-04T21:06:09.341Z,95019.94
2022-08-04T21:08:36.996Z,95029.25
2022-08-04T21:11:06.924Z,95032.22
2022-08-04T21:13:50.861Z,95037.06
2022-08-04T21:16:54.799Z,95037.19
2022-08-04T21:19:13.186Z,95045.56
2022-08-04T21:21:42.281Z,95024.13
2022-08-04T21:24:10.104Z,95032.63
2022-08-04T21:26:40.334Z,95041.38
2022-08-04T21:29:10.455Z,95044.91
2022-08-04T21:31:50.217Z,95038.47
2022-08-04T21:34:38.041Z,95044.03
2022-08-04T21:37:04.761Z,95043.44
2022-08-04T21:39:32.575Z,95038.91
2022-08-04T21:42:29.389Z,95028.69
2022-08-04T21:44:46.172Z,95025.84
2022-08-04T21:47:23.484Z,95031.06
2022-08-04T21:49:56.808Z,95026.88
2022-08-04T21:52:24.792Z,95028.81
2022-08-04T21:54:54.571Z,95031.91
2022-08-04T21:57:22.579Z,95021.78
2022-08-04T21:59:51.910Z,95028.38
2022-08-04T22:02:18.699Z,95027.81
2022-08-04T22:04:45.415Z,95031.13
2022-08-04T22:07:12.260Z,95037.22
2022-08-04T22:09:45.667Z,95030.81
2022-08-04T22:12:27.391Z,95037.25
2022-08-04T22:14:59.189Z,95029.09
2022-08-04T22:17:35.180Z,95033.00
2022-08-04T22:20:04.023Z,95037.88
2022-08-04T22:22:34.403Z,95041.50
2022-08-04T22:25:12.560Z,95047.25
2022-08-04T22:27:41.980Z,95047.88
2022-08-04T22:30:16.795Z,95055.69
2022-08-04T22:32:46.234Z,95044.09
2022-08-04T22:35:33.296Z,95057.09
2022-08-04T22:38:06.237Z,95050.69
2022-08-04T22:40:34.636Z,95051.00
2022-08-04T22:43:01.266Z,95051.81
2022-08-04T22:45:29.114Z,95051.03
2022-08-04T22:48:11.704Z,95059.84
2022-08-04T22:50:39.447Z,95057.59
2022-08-04T22:53:06.370Z,95048.06
2022-08-04T22:56:06.780Z,95049.66
2022-08-04T22:58:20.007Z,95053.53
2022-08-04T23:00:52.956Z,95054.41
2022-08-04T23:03:37.053Z,95059.44
2022-08-04T23:06:10.532Z,95060.06
2022-08-04T23:08:43.080Z,95060.41
2022-08-04T23:11:13.568Z,95058.72
2022-08-04T23:13:41.742Z,95070.38
2022-08-04T23:16:10.475Z,95079.91
2022-08-04T23:18:41.810Z,95092.59
2022-08-04T23:21:10.374Z,95092.41
2022-08-04T23:23:45.610Z,95096.59
2022-08-04T23:26:27.999Z,95091.78
2022-08-04T23:28:56.035Z,95093.09
2022-08-04T23:31:23.251Z,95085.63
2022-08-04T23:33:51.311Z,95079.25
2022-08-04T23:36:29.862Z,95071.56
2022-08-04T23:39:03.907Z,95068.00
2022-08-04T23:41:53.816Z,95057.66
2022-08-04T23:44:25.360Z,95054.16
2022-08-04T23:48:16.537Z,95050.63
2022-08-04T23:49:58.668Z,95048.97
2022-08-04T23:52:29.594Z,95039.25
2022-08-04T23:54:59.216Z,95043.00
2022-08-04T23:57:31.165Z,95044.91
